Time;durP1;ratioP1;P1;durP2;ratioP2;P2;SDS_P1;SDS_P2;PMS_P1;PMS_P2;Temp;Humidity;BMP_temperature;BMP_pressure;BME280_temperature;BME280_humidity;BME280_pressure;Samples;Min_cycle;Max_cycle;Signal;HPM_P1;HPM_P2
2023/06/04 00:01:50;;;;;;;14.27;13.03;;;11.30;68.80;;;;;;5011976;28;20193;-86
2023/06/04 00:04:16;;;;;;;14.37;13.23;;;11.30;68.80;;;;;;5013442;28;20166;-86
2023/06/04 00:06:42;;;;;;;14.13;13.10;;;11.30;69.20;;;;;;5013350;28;20595;-86
2023/06/04 00:09:07;;;;;;;14.50;13.23;;;11.30;69.30;;;;;;5011966;28;20173;-86
2023/06/04 00:11:33;;;;;;;13.83;12.60;;;11.20;69.30;;;;;;5013174;28;20558;-85
2023/06/04 00:14:00;;;;;;;15.17;13.53;;;11.20;69.20;;;;;;5013023;28;20260;-86
2023/06/04 00:16:26;;;;;;;14.23;12.97;;;11.10;69.40;;;;;;5011783;28;20182;-86
2023/06/04 00:18:51;;;;;;;14.23;13.03;;;11.10;69.50;;;;;;5014510;28;20184;-86
2023/06/04 00:21:17;;;;;;;13.73;12.73;;;11.10;69.50;;;;;;5016740;28;20587;-85
2023/06/04 00:23:42;;;;;;;18.43;14.07;;;11.00;69.50;;;;;;5015468;28;20185;-86
2023/06/04 00:26:08;;;;;;;16.93;15.23;;;11.00;69.40;;;;;;5015591;28;20272;-86
2023/06/04 00:28:33;;;;;;;15.87;13.97;;;11.00;69.70;;;;;;5015490;28;20232;-86
2023/06/04 00:30:59;;;;;;;17.40;15.80;;;10.90;70.00;;;;;;5015415;28;20183;-85
2023/06/04 00:33:24;;;;;;;17.43;15.03;;;10.90;70.80;;;;;;5016581;28;20290;-86
2023/06/04 00:35:50;;;;;;;16.53;14.73;;;11.00;71.00;;;;;;5015339;28;20239;-86
2023/06/04 00:38:16;;;;;;;17.40;15.70;;;10.90;71.30;;;;;;5016545;28;20165;-86
2023/06/04 00:40:41;;;;;;;18.03;15.63;;;10.80;71.50;;;;;;5015357;28;20594;-86
2023/06/04 00:43:08;;;;;;;17.17;15.03;;;10.80;71.80;;;;;;5015132;28;20613;-85
2023/06/04 00:45:34;;;;;;;19.07;14.50;;;10.80;72.00;;;;;;5015190;28;20228;-86
2023/06/04 00:48:00;;;;;;;17.57;14.93;;;10.70;72.50;;;;;;5016416;28;20173;-86
2023/06/04 00:50:25;;;;;;;17.63;14.57;;;10.50;73.20;;;;;;5016395;28;20248;-86
2023/06/04 00:52:51;;;;;;;18.27;13.80;;;10.20;73.90;;;;;;5016195;28;20201;-86
2023/06/04 00:55:18;;;;;;;16.23;13.53;;;10.10;74.50;;;;;;5015364;28;20199;-86
2023/06/04 00:57:44;;;;;;;14.23;12.87;;;10.10;74.50;;;;;;5016136;28;20256;-86
2023/06/04 01:00:10;;;;;;;14.37;13.17;;;10.20;74.50;;;;;;5016155;28;20216;-86
2023/06/04 01:02:40;;;;;;;14.57;13.37;;;10.20;74.40;;;;;;5014869;28;20205;-85
2023/06/04 01:05:19;;;;;;;14.60;13.10;;;10.20;74.20;;;;;;5016121;28;20740;-86
2023/06/04 01:07:46;;;;;;;15.30;14.10;;;10.20;73.90;;;;;;5014994;28;20231;-86
2023/06/04 01:10:13;;;;;;;15.53;14.03;;;10.20;73.70;;;;;;5014830;28;20609;-86
2023/06/04 01:12:42;;;;;;;15.17;13.63;;;10.20;73.70;;;;;;5014451;28;20240;-86
2023/06/04 01:15:09;;;;;;;14.87;13.23;;;10.10;73.80;;;;;;5014759;28;20558;-86
2023/06/04 01:17:37;;;;;;;14.77;13.43;;;10.00;73.90;;;;;;5016146;28;20331;-86
2023/06/04 01:20:04;;;;;;;15.40;14.10;;;10.00;73.90;;;;;;5014565;28;20219;-86
2023/06/04 01:22:51;;;;;;;14.73;13.30;;;9.90;73.80;;;;;;5014416;28;20200;-85
2023/06/04 01:25:23;;;;;;;14.60;13.40;;;9.90;73.70;;;;;;5014460;28;20170;-86
2023/06/04 01:27:52;;;;;;;15.83;14.40;;;9.80;73.60;;;;;;5014386;28;20181;-86
2023/06/04 01:30:22;;;;;;;14.83;13.43;;;9.80;74.50;;;;;;5014869;28;20177;-86
2023/06/04 01:32:48;;;;;;;14.20;12.90;;;9.70;74.80;;;;;;5014183;28;20201;-86
2023/06/04 01:35:14;;;;;;;14.67;13.47;;;9.60;74.90;;;;;;5014370;28;20702;-86
2023/06/04 01:37:39;;;;;;;14.73;13.40;;;9.50;74.80;;;;;;5014244;28;20219;-86
2023/06/04 01:40:08;;;;;;;14.33;13.30;;;9.50;74.80;;;;;;5014214;28;20670;-86
2023/06/04 01:42:34;;;;;;;15.17;14.03;;;9.50;74.70;;;;;;5015227;28;20193;-86
2023/06/04 01:45:00;;;;;;;16.90;13.70;;;9.50;74.50;;;;;;5015380;28;20670;-86
2023/06/04 01:47:25;;;;;;;14.70;13.43;;;9.50;74.40;;;;;;5014236;28;20264;-86
2023/06/04 01:49:51;;;;;;;15.47;14.07;;;9.50;74.20;;;;;;5014130;28;20265;-86
2023/06/04 01:52:16;;;;;;;15.20;13.67;;;9.40;74.10;;;;;;5014113;28;20255;-86
2023/06/04 01:54:42;;;;;;;14.80;13.47;;;9.30;74.00;;;;;;5014074;28;20182;-86
2023/06/04 01:57:09;;;;;;;15.57;14.23;;;9.40;74.00;;;;;;5013902;28;20174;-86
2023/06/04 01:59:36;;;;;;;15.60;14.50;;;9.30;74.00;;;;;;5015243;28;20173;-86
2023/06/04 02:02:02;;;;;;;15.33;14.13;;;9.20;75.00;;;;;;5013646;28;20200;-86
2023/06/04 02:04:27;;;;;;;15.47;14.07;;;9.20;75.40;;;;;;5013666;28;20178;-86
2023/06/04 02:06:53;;;;;;;15.40;14.00;;;9.10;75.20;;;;;;5013553;28;20182;-86
2023/06/04 02:09:18;;;;;;;14.73;13.67;;;9.20;75.20;;;;;;5014788;28;20181;-86
2023/06/04 02:11:44;;;;;;;15.97;14.80;;;9.20;75.20;;;;;;5014829;28;20247;-86
2023/06/04 02:14:10;;;;;;;17.03;15.17;;;9.00;75.40;;;;;;5013471;28;20675;-86
2023/06/04 02:16:35;;;;;;;17.63;15.93;;;9.00;76.60;;;;;;5014756;28;20239;-86
2023/06/04 02:19:02;;;;;;;15.07;13.63;;;9.00;77.80;;;;;;5014858;28;20173;-86
2023/06/04 02:21:28;;;;;;;13.77;12.67;;;9.00;77.30;;;;;;5013293;28;20180;-85
2023/06/04 02:23:54;;;;;;;14.23;13.03;;;9.00;76.90;;;;;;5014851;28;20189;-86
2023/06/04 02:26:19;;;;;;;16.27;14.87;;;9.00;76.50;;;;;;5014575;28;20205;-86
2023/06/04 02:28:45;;;;;;;14.37;13.37;;;8.90;76.70;;;;;;5013298;28;20217;-87
2023/06/04 02:31:10;;;;;;;16.10;14.53;;;8.80;77.90;;;;;;5014339;28;20177;-86
2023/06/04 02:33:36;;;;;;;15.27;13.97;;;8.80;78.20;;;;;;5013042;28;20205;-86
2023/06/04 02:36:01;;;;;;;15.53;14.20;;;8.90;78.10;;;;;;5013138;28;20174;-86
2023/06/04 02:38:27;;;;;;;15.23;14.20;;;8.90;77.70;;;;;;5013332;28;20628;-86
2023/06/04 02:40:52;;;;;;;16.70;14.53;;;8.80;77.60;;;;;;5013207;28;20173;-86
2023/06/04 02:43:18;;;;;;;13.97;12.97;;;8.90;77.40;;;;;;5011942;28;20667;-86
2023/06/04 02:45:43;;;;;;;28.37;26.30;;;8.90;77.10;;;;;;5014244;28;20204;-86
2023/06/04 02:48:09;;;;;;;30.20;27.93;;;8.90;76.90;;;;;;5014114;28;20184;-85
2023/06/04 02:50:35;;;;;;;28.17;26.03;;;8.90;76.70;;;;;;5014164;28;20178;-86
2023/06/04 02:53:00;;;;;;;30.63;27.97;;;8.80;76.90;;;;;;5012677;28;20560;-86
2023/06/04 02:55:26;;;;;;;29.30;26.97;;;8.80;77.40;;;;;;5014002;28;20547;-86
2023/06/04 02:57:51;;;;;;;24.97;23.27;;;8.80;77.10;;;;;;5012754;28;20178;-86
2023/06/04 03:00:17;;;;;;;28.33;26.43;;;8.80;76.80;;;;;;5013944;28;20172;-86
2023/06/04 03:02:46;;;;;;;29.80;27.47;;;8.80;76.60;;;;;;5012614;28;20248;-85
2023/06/04 03:05:13;;;;;;;28.80;26.67;;;8.70;76.60;;;;;;5012577;28;20193;-86
2023/06/04 03:07:42;;;;;;;13.93;12.73;;;8.70;76.60;;;;;;5013870;28;20592;-86
2023/06/04 03:10:09;;;;;;;14.57;13.43;;;8.70;76.90;;;;;;5012547;28;20181;-86
2023/06/04 03:12:35;;;;;;;13.77;12.67;;;8.80;77.10;;;;;;5013476;28;20216;-86
2023/06/04 03:15:01;;;;;;;13.97;12.70;;;8.90;77.40;;;;;;5012532;28;20173;-86
2023/06/04 03:17:26;;;;;;;15.40;13.93;;;8.90;76.90;;;;;;5012451;28;20655;-86
2023/06/04 03:19:52;;;;;;;14.00;12.80;;;9.00;77.40;;;;;;5012453;28;20185;-85
2023/06/04 03:22:18;;;;;;;13.43;12.03;;;9.00;77.90;;;;;;5013540;28;20193;-86
2023/06/04 03:24:43;;;;;;;11.90;10.73;;;9.00;77.40;;;;;;5012390;28;20174;-86
2023/06/04 03:27:10;;;;;;;16.13;12.20;;;9.00;76.90;;;;;;5013571;28;20173;-86
2023/06/04 03:29:36;;;;;;;11.93;10.83;;;8.90;76.60;;;;;;5012325;28;20603;-86
2023/06/04 03:32:02;;;;;;;12.03;11.10;;;8.90;76.50;;;;;;5012521;28;20573;-86
2023/06/04 03:34:31;;;;;;;12.00;11.10;;;8.80;76.30;;;;;;5012293;28;20174;-86
2023/06/04 03:36:57;;;;;;;12.17;11.07;;;8.90;76.50;;;;;;5012261;28;20669;-86
2023/06/04 03:39:22;;;;;;;11.97;10.90;;;8.90;76.40;;;;;;5012243;28;20177;-85
2023/06/04 03:41:48;;;;;;;12.57;11.47;;;8.90;76.30;;;;;;5012036;28;20189;-85
2023/06/04 03:44:17;;;;;;;10.97;10.13;;;9.00;76.40;;;;;;5012159;28;20267;-86
2023/06/04 03:46:44;;;;;;;11.47;10.30;;;9.10;76.20;;;;;;5012047;28;20279;-86
2023/06/04 03:49:10;;;;;;;12.53;11.50;;;9.30;76.00;;;;;;5012118;28;20188;-85
2023/06/04 03:51:37;;;;;;;11.90;11.00;;;9.40;75.90;;;;;;5013211;28;20220;-85
2023/06/04 03:54:02;;;;;;;12.23;11.13;;;9.50;75.60;;;;;;5013729;28;20204;-86
2023/06/04 03:56:28;;;;;;;12.67;11.73;;;9.60;75.30;;;;;;5016593;28;20177;-86
2023/06/04 03:58:54;;;;;;;11.83;10.77;;;9.70;75.30;;;;;;5016036;28;20235;-85
2023/06/04 04:01:19;;;;;;;11.30;10.50;;;9.80;75.40;;;;;;5016255;28;20181;-84
2023/06/04 04:03:48;;;;;;;12.33;11.03;;;9.90;75.50;;;;;;5017239;28;20658;-86
2023/06/04 04:06:13;;;;;;;11.83;10.73;;;9.90;75.50;;;;;;5015860;28;20181;-85
2023/06/04 04:08:42;;;;;;;11.63;10.63;;;10.00;75.60;;;;;;5017160;28;20185;-86
2023/06/04 04:11:08;;;;;;;15.20;10.03;;;10.00;75.70;;;;;;5015818;28;20261;-86
2023/06/04 04:13:33;;;;;;;11.73;10.57;;;9.90;75.80;;;;;;5015637;28;20296;-86
2023/06/04 04:15:59;;;;;;;12.70;10.33;;;10.00;76.20;;;;;;5015702;28;20186;-86
2023/06/04 04:18:25;;;;;;;11.53;10.00;;;10.10;76.40;;;;;;5015705;28;20170;-86
2023/06/04 04:20:51;;;;;;;11.10;9.97;;;10.20;76.70;;;;;;5015736;28;20173;-86
2023/06/04 04:23:16;;;;;;;10.67;9.57;;;10.10;76.70;;;;;;5015527;28;20193;-84
2023/06/04 04:25:44;;;;;;;12.87;11.67;;;10.20;77.00;;;;;;5015653;28;20208;-86
2023/06/04 04:28:09;;;;;;;16.53;10.60;;;10.20;78.60;;;;;;5015558;28;20205;-86
2023/06/04 04:30:35;;;;;;;13.67;10.20;;;10.20;79.50;;;;;;5015468;28;20231;-86
2023/06/04 04:33:01;;;;;;;10.97;8.03;;;10.20;80.30;;;;;;5016639;28;20232;-85
2023/06/04 04:35:28;;;;;;;12.67;9.17;;;10.30;80.40;;;;;;5016599;28;20253;-85
2023/06/04 04:37:54;;;;;;;16.37;10.33;;;10.30;80.30;;;;;;5016574;28;20208;-86
2023/06/04 04:40:20;;;;;;;12.73;10.63;;;10.30;81.00;;;;;;5016495;28;20231;-85
2023/06/04 04:42:46;;;;;;;13.43;10.60;;;10.30;81.50;;;;;;5015201;28;20197;-85
2023/06/04 04:45:12;;;;;;;18.33;11.20;;;10.30;82.00;;;;;;5015131;28;20188;-85
2023/06/04 04:47:37;;;;;;;13.40;10.77;;;10.30;82.60;;;;;;5016343;28;20173;-85
2023/06/04 04:50:04;;;;;;;12.63;10.47;;;10.40;83.10;;;;;;5015102;28;20243;-85
2023/06/04 04:52:29;;;;;;;14.57;9.60;;;10.40;83.40;;;;;;5016374;28;20197;-86
2023/06/04 04:54:57;;;;;;;16.33;9.53;;;10.40;83.80;;;;;;5015102;28;20220;-86
2023/06/04 04:57:23;;;;;;;16.73;9.33;;;10.50;84.00;;;;;;5015053;28;20169;-86
2023/06/04 04:59:48;;;;;;;16.23;9.37;;;10.40;84.20;;;;;;5014881;28;20260;-85
2023/06/04 05:02:15;;;;;;;18.23;8.90;;;10.50;84.30;;;;;;5014786;28;20649;-86
2023/06/04 05:04:40;;;;;;;14.07;8.30;;;10.50;84.40;;;;;;5014371;28;20173;-85
2023/06/04 05:07:06;;;;;;;9.23;7.47;;;10.50;84.70;;;;;;5015563;28;20204;-86
2023/06/04 05:09:31;;;;;;;16.00;8.30;;;10.60;84.80;;;;;;5015882;28;20252;-86
2023/06/04 05:11:57;;;;;;;16.03;8.10;;;10.60;84.90;;;;;;5014487;28;20227;-86
2023/06/04 05:14:23;;;;;;;14.43;8.53;;;10.70;84.90;;;;;;5014681;28;20197;-86
2023/06/04 05:16:48;;;;;;;15.17;8.07;;;10.80;85.00;;;;;;5014791;28;20178;-86
2023/06/04 05:19:16;;;;;;;16.23;11.87;;;10.80;85.10;;;;;;5014573;28;20296;-85
2023/06/04 05:21:43;;;;;;;17.07;12.20;;;10.90;85.00;;;;;;5015758;28;20186;-85
2023/06/04 05:24:09;;;;;;;23.67;13.23;;;11.10;85.10;;;;;;5014475;28;20208;-86
2023/06/04 05:26:35;;;;;;;15.43;11.87;;;11.20;85.10;;;;;;5014411;28;20211;-85
2023/06/04 05:29:01;;;;;;;15.30;11.93;;;11.30;84.70;;;;;;5015707;28;20181;-86
2023/06/04 05:31:27;;;;;;;19.00;12.27;;;11.40;84.50;;;;;;5015744;28;20180;-85
2023/06/04 05:33:52;;;;;;;12.43;7.63;;;11.50;84.10;;;;;;5014207;28;20197;-86
2023/06/04 05:36:19;;;;;;;13.53;7.93;;;11.60;83.70;;;;;;5014348;28;20652;-86
2023/06/04 05:38:44;;;;;;;14.73;7.53;;;11.70;83.00;;;;;;5015522;28;20256;-86
2023/06/04 05:41:11;;;;;;;15.27;7.73;;;11.70;82.80;;;;;;5014419;28;20221;-85
2023/06/04 05:43:36;;;;;;;13.43;7.90;;;11.80;82.60;;;;;;5014141;28;20200;-86
2023/06/04 05:46:02;;;;;;;12.93;7.17;;;11.80;82.40;;;;;;5015693;28;20232;-86
2023/06/04 05:48:27;;;;;;;13.47;7.33;;;12.00;82.30;;;;;;5015356;28;20189;-85
2023/06/04 05:50:53;;;;;;;16.27;7.60;;;12.10;81.90;;;;;;5014144;28;20273;-86
2023/06/04 05:53:18;;;;;;;16.00;7.70;;;12.20;81.50;;;;;;5013981;28;20209;-86
2023/06/04 05:55:44;;;;;;;16.87;8.07;;;12.30;81.20;;;;;;5015276;28;20173;-86
2023/06/04 05:58:09;;;;;;;12.50;7.97;;;12.30;80.30;;;;;;5013933;28;20264;-86
2023/06/04 06:00:35;;;;;;;13.77;8.63;;;12.40;79.50;;;;;;5013945;28;20216;-86
2023/06/04 06:03:01;;;;;;;13.20;7.67;;;12.60;80.10;;;;;;5013798;28;20224;-86
2023/06/04 06:05:27;;;;;;;16.93;8.00;;;12.70;80.10;;;;;;5013748;28;20181;-85
2023/06/04 06:07:52;;;;;;;17.03;7.73;;;12.80;79.70;;;;;;5013761;28;20178;-86
2023/06/04 06:10:19;;;;;;;13.43;8.10;;;12.80;79.10;;;;;;5013713;28;20182;-86
2023/06/04 06:12:44;;;;;;;15.50;8.27;;;13.00;79.60;;;;;;5013376;28;20699;-86
2023/06/04 06:15:10;;;;;;;16.27;9.43;;;13.10;79.00;;;;;;5013802;28;20224;-86
2023/06/04 06:17:38;;;;;;;13.00;9.50;;;13.20;77.00;;;;;;5014656;28;20170;-86
2023/06/04 06:20:07;;;;;;;17.47;9.47;;;13.20;76.60;;;;;;5013657;28;20174;-86
2023/06/04 06:22:33;;;;;;;11.23;8.60;;;13.30;76.30;;;;;;5014774;28;20197;-86
2023/06/04 06:24:59;;;;;;;13.57;8.57;;;13.40;75.80;;;;;;5013410;28;20181;-86
2023/06/04 06:27:25;;;;;;;12.03;8.73;;;13.30;74.90;;;;;;5013426;28;20177;-86
2023/06/04 06:29:50;;;;;;;12.10;8.50;;;13.50;74.20;;;;;;5014849;28;20539;-85
2023/06/04 06:32:16;;;;;;;9.57;8.47;;;13.70;73.20;;;;;;5013141;28;20201;-86
2023/06/04 06:34:41;;;;;;;12.67;9.43;;;13.70;71.30;;;;;;5013364;28;20193;-86
2023/06/04 06:37:07;;;;;;;14.20;9.13;;;13.70;70.60;;;;;;5013437;28;20264;-86
2023/06/04 06:39:33;;;;;;;13.30;8.73;;;13.70;71.50;;;;;;5014307;28;20248;-86
2023/06/04 06:41:58;;;;;;;15.73;10.00;;;13.80;71.80;;;;;;5013036;28;20648;-86
2023/06/04 06:44:24;;;;;;;11.93;8.63;;;13.80;70.70;;;;;;5013058;28;20185;-86
2023/06/04 06:46:50;;;;;;;12.50;9.83;;;14.00;71.50;;;;;;5013118;28;20205;-86
2023/06/04 06:49:15;;;;;;;12.07;10.70;;;14.00;69.00;;;;;;5012949;28;20181;-86
2023/06/04 06:51:41;;;;;;;12.77;11.43;;;14.00;65.80;;;;;;5012869;28;20200;-86
2023/06/04 06:54:09;;;;;;;13.07;11.63;;;14.00;64.70;;;;;;5013156;28;20208;-86
2023/06/04 06:56:35;;;;;;;12.87;11.57;;;14.00;66.20;;;;;;5012931;28;20247;-86
2023/06/04 06:59:01;;;;;;;13.50;12.10;;;14.20;67.00;;;;;;5012917;28;20525;-86
2023/06/04 07:01:26;;;;;;;20.60;13.70;;;14.30;66.20;;;;;;5013919;28;20197;-86
2023/06/04 07:03:52;;;;;;;13.33;12.10;;;14.30;65.30;;;;;;5013991;28;20181;-86
2023/06/04 07:06:18;;;;;;;14.40;13.10;;;14.40;63.10;;;;;;5013925;28;20173;-86
2023/06/04 07:08:43;;;;;;;12.70;11.47;;;14.50;63.00;;;;;;5012698;28;20540;-86
2023/06/04 07:11:11;;;;;;;14.13;12.70;;;14.50;62.10;;;;;;5013775;28;20166;-86
2023/06/04 07:13:38;;;;;;;14.37;13.03;;;14.70;63.20;;;;;;5012342;28;20239;-86
2023/06/04 07:16:04;;;;;;;14.27;12.77;;;14.80;64.60;;;;;;5012577;28;20174;-86
2023/06/04 07:18:29;;;;;;;17.20;14.53;;;14.90;64.20;;;;;;5012435;28;20177;-86
2023/06/04 07:20:55;;;;;;;14.07;12.80;;;15.00;64.60;;;;;;5012541;28;20169;-86
2023/06/04 07:23:20;;;;;;;13.93;12.52;;;15.10;64.40;;;;;;5012441;28;20201;-87
2023/06/04 07:25:46;;;;;;;14.63;13.23;;;15.20;63.60;;;;;;5012408;28;20177;-87
2023/06/04 07:28:12;;;;;;;15.13;13.80;;;15.20;63.30;;;;;;5012087;28;20623;-87
2023/06/04 07:30:38;;;;;;;15.33;13.87;;;14.90;64.50;;;;;;5012457;28;20204;-87
2023/06/04 07:33:03;;;;;;;16.42;14.80;;;14.90;65.80;;;;;;5012397;28;20639;-87
2023/06/04 07:35:29;;;;;;;15.85;14.40;;;14.70;66.30;;;;;;5013616;28;20166;-87
2023/06/04 07:37:54;;;;;;;16.90;15.48;;;14.70;67.90;;;;;;5013562;28;20201;-86
2023/06/04 07:40:20;;;;;;;22.13;20.07;;;15.20;66.30;;;;;;5013630;28;20173;-87
2023/06/04 07:42:47;;;;;;;23.27;21.25;;;15.30;64.30;;;;;;5012391;28;20200;-87
2023/06/04 07:45:12;;;;;;;23.77;21.85;;;15.40;63.50;;;;;;5013860;28;20170;-87
2023/06/04 07:47:38;;;;;;;25.10;23.10;;;15.60;62.60;;;;;;5013066;28;20646;-86
2023/06/04 07:50:05;;;;;;;25.30;23.05;;;15.70;63.80;;;;;;5012172;28;20222;-87
2023/06/04 07:52:30;;;;;;;25.70;23.55;;;15.70;63.80;;;;;;5012306;28;20255;-86
2023/06/04 07:54:56;;;;;;;19.48;17.85;;;15.70;64.40;;;;;;5013432;28;20177;-86
2023/06/04 07:57:22;;;;;;;17.35;15.07;;;16.00;62.20;;;;;;5012227;28;20307;-87
2023/06/04 07:59:48;;;;;;;19.65;17.65;;;16.00;61.90;;;;;;5013441;28;20537;-87
2023/06/04 08:02:14;;;;;;;19.67;17.92;;;16.10;63.00;;;;;;5012046;28;20193;-87
2023/06/04 08:04:40;;;;;;;18.42;16.67;;;16.30;61.60;;;;;;5013230;28;20165;-87
2023/06/04 08:07:05;;;;;;;13.18;11.93;;;16.30;60.40;;;;;;5012197;28;20264;-87
2023/06/04 08:09:31;;;;;;;14.60;13.40;;;16.30;61.00;;;;;;5012193;28;20173;-87
2023/06/04 08:11:56;;;;;;;16.00;14.35;;;16.50;59.60;;;;;;5011915;28;20193;-87
2023/06/04 08:14:23;;;;;;;16.67;13.30;;;16.40;59.40;;;;;;5013280;28;20196;-87
2023/06/04 08:16:48;;;;;;;15.48;13.98;;;16.50;60.20;;;;;;5012373;28;20180;-87
2023/06/04 08:19:15;;;;;;;14.60;13.23;;;16.70;60.10;;;;;;5012196;28;20170;-87
2023/06/04 08:21:41;;;;;;;14.88;13.60;;;16.60;60.30;;;;;;5013108;28;20651;-86
2023/06/04 08:24:08;;;;;;;17.67;13.90;;;16.70;60.40;;;;;;5011953;28;20565;-87
2023/06/04 08:26:34;;;;;;;21.63;13.63;;;16.70;60.20;;;;;;5011922;28;20178;-86
2023/06/04 08:29:03;;;;;;;14.27;12.98;;;16.70;60.40;;;;;;5011876;28;20179;-87
2023/06/04 08:31:29;;;;;;;14.32;12.98;;;16.80;60.10;;;;;;5011710;28;20182;-87
2023/06/04 08:33:54;;;;;;;14.55;12.98;;;17.00;58.20;;;;;;5012196;28;20232;-87
2023/06/04 08:36:20;;;;;;;15.75;12.75;;;17.20;59.40;;;;;;5011821;28;20281;-87
2023/06/04 08:38:50;;;;;;;13.90;12.10;;;17.30;59.70;;;;;;5011953;28;20174;-87
2023/06/04 08:41:23;;;;;;;14.07;12.82;;;17.60;60.40;;;;;;5015436;28;20161;-88
2023/06/04 08:43:50;;;;;;;17.60;13.18;;;17.50;58.10;;;;;;5015613;28;20177;-87
2023/06/04 08:46:17;;;;;;;14.15;12.90;;;17.60;59.40;;;;;;5015418;28;20185;-87
2023/06/04 08:48:43;;;;;;;14.57;13.25;;;17.70;58.20;;;;;;5016697;28;20177;-87
2023/06/04 08:51:11;;;;;;;13.77;12.55;;;17.90;56.50;;;;;;5016734;28;20632;-87
2023/06/04 08:53:37;;;;;;;14.20;12.90;;;18.00;56.90;;;;;;5015157;28;20209;-87
2023/06/04 08:56:03;;;;;;;13.35;12.23;;;18.10;57.80;;;;;;5015090;28;20196;-87
2023/06/04 08:58:32;;;;;;;13.85;12.45;;;18.10;56.70;;;;;;5016408;28;20180;-87
2023/06/04 09:01:00;;;;;;;12.98;11.93;;;18.00;56.40;;;;;;5015185;28;20174;-87
2023/06/04 09:03:26;;;;;;;14.48;13.05;;;18.10;55.90;;;;;;5014905;28;20255;-86
2023/06/04 09:05:52;;;;;;;13.40;12.30;;;18.20;55.50;;;;;;5016166;28;20177;-87
2023/06/04 09:08:19;;;;;;;14.15;12.90;;;18.40;55.30;;;;;;5014895;28;20174;-87
2023/06/04 09:10:49;;;;;;;13.18;11.77;;;18.40;56.70;;;;;;5014820;28;20184;-87
2023/06/04 09:13:17;;;;;;;14.10;12.80;;;18.50;55.20;;;;;;5014652;28;20608;-87
2023/06/04 09:15:42;;;;;;;14.65;13.20;;;18.70;56.20;;;;;;5016146;28;20189;-87
2023/06/04 09:18:08;;;;;;;13.23;12.13;;;18.80;56.20;;;;;;5014765;28;20751;-87
2023/06/04 09:20:33;;;;;;;13.93;12.60;;;18.90;54.30;;;;;;5015854;28;20544;-87
2023/06/04 09:22:59;;;;;;;13.63;12.30;;;18.90;55.90;;;;;;5014691;28;20197;-87
2023/06/04 09:25:26;;;;;;;13.43;12.23;;;19.00;56.00;;;;;;5014691;28;20185;-87
2023/06/04 09:27:55;;;;;;;14.07;12.63;;;19.10;56.10;;;;;;5015905;28;20208;-87
2023/06/04 09:30:21;;;;;;;12.65;11.75;;;19.30;56.50;;;;;;5015885;28;20559;-87
2023/06/04 09:32:47;;;;;;;17.83;12.40;;;19.40;52.60;;;;;;5015982;28;20252;-87
2023/06/04 09:35:17;;;;;;;14.30;12.80;;;19.70;54.20;;;;;;5016011;28;20178;-87
2023/06/04 09:37:52;;;;;;;13.05;11.93;;;19.20;55.30;;;;;;5014949;28;20181;-87
2023/06/04 09:40:18;;;;;;;13.15;11.98;;;19.70;54.00;;;;;;5014677;28;20173;-87
2023/06/04 09:42:45;;;;;;;13.52;12.43;;;19.90;53.60;;;;;;5014862;28;20671;-87
2023/06/04 09:45:11;;;;;;;13.55;12.50;;;19.80;53.90;;;;;;5015816;28;20182;-87
2023/06/04 09:47:44;;;;;;;14.00;12.80;;;20.00;52.90;;;;;;5014384;28;20269;-86
2023/06/04 09:50:11;;;;;;;13.85;12.55;;;19.90;52.60;;;;;;5015532;28;20177;-86
2023/06/04 09:52:39;;;;;;;14.40;13.10;;;19.70;52.60;;;;;;5014817;28;20197;-87
2023/06/04 09:55:19;;;;;;;15.93;12.68;;;20.00;53.80;;;;;;5014044;28;20173;-87
2023/06/04 09:57:49;;;;;;;14.23;12.80;;;20.20;53.60;;;;;;5015314;28;20175;-87
2023/06/04 10:00:20;;;;;;;14.65;13.32;;;20.20;53.00;;;;;;5015269;28;20235;-87
2023/06/04 10:02:47;;;;;;;14.32;13.00;;;20.50;52.30;;;;;;5015212;28;20255;-87
2023/06/04 10:05:14;;;;;;;13.25;12.23;;;19.80;55.80;;;;;;5013882;28;20264;-87
2023/06/04 10:07:45;;;;;;;13.60;12.38;;;20.30;52.20;;;;;;5013916;28;20643;-87
2023/06/04 10:10:16;;;;;;;13.57;12.57;;;20.50;51.00;;;;;;5015077;28;20162;-87
2023/06/04 10:12:42;;;;;;;14.15;12.90;;;20.70;51.00;;;;;;5015103;28;20215;-87
2023/06/04 10:15:12;;;;;;;13.95;12.63;;;20.60;49.60;;;;;;5013994;28;20636;-87
2023/06/04 10:17:38;;;;;;;20.58;19.13;;;20.20;50.60;;;;;;5013992;28;20178;-87
2023/06/04 10:20:05;;;;;;;21.90;20.17;;;20.10;53.00;;;;;;5014022;28;20174;-87
2023/06/04 10:22:31;;;;;;;21.30;19.80;;;20.50;53.00;;;;;;5014794;28;20201;-87
2023/06/04 10:24:58;;;;;;;22.08;20.52;;;20.30;52.50;;;;;;5013633;28;20181;-87
2023/06/04 10:27:24;;;;;;;21.83;20.33;;;20.30;52.20;;;;;;5013625;28;20177;-87
2023/06/04 10:29:51;;;;;;;21.10;19.70;;;20.20;50.60;;;;;;5013494;28;20173;-86
2023/06/04 10:32:17;;;;;;;19.65;18.35;;;20.50;51.10;;;;;;5013277;28;20201;-87
2023/06/04 10:34:43;;;;;;;19.90;18.50;;;20.70;50.60;;;;;;5014755;28;20184;-87
2023/06/04 10:37:20;;;;;;;19.02;17.52;;;21.10;46.30;;;;;;5014557;28;20174;-87
2023/06/04 10:39:55;;;;;;;13.60;12.70;;;20.90;48.40;;;;;;5013415;28;20181;-87
2023/06/04 10:42:22;;;;;;;14.52;13.38;;;21.20;46.60;;;;;;5013511;28;20854;-87
2023/06/04 10:44:49;;;;;;;14.00;13.05;;;20.70;48.30;;;;;;5014326;28;20173;-87
2023/06/04 10:47:22;;;;;;;14.05;13.15;;;21.00;44.50;;;;;;5013200;28;20535;-86
2023/06/04 10:49:49;;;;;;;13.75;12.55;;;21.00;43.30;;;;;;5014505;28;20224;-87
2023/06/04 10:52:15;;;;;;;13.55;12.73;;;21.20;45.20;;;;;;5012909;28;20204;-87
2023/06/04 10:54:42;;;;;;;13.50;12.50;;;21.40;44.50;;;;;;5013123;28;20169;-87
2023/06/04 10:57:16;;;;;;;13.40;12.50;;;21.50;44.30;;;;;;5014239;28;20213;-87
2023/06/04 10:59:53;;;;;;;14.88;13.88;;;21.50;44.30;;;;;;5013109;28;20169;-87
2023/06/04 11:02:19;;;;;;;13.90;12.93;;;21.80;43.70;;;;;;5014135;28;20280;-87
2023/06/04 11:04:44;;;;;;;15.15;14.05;;;22.10;43.40;;;;;;5013475;28;20259;-87
2023/06/04 11:07:10;;;;;;;15.20;13.40;;;21.90;44.70;;;;;;5013024;28;20176;-87
2023/06/04 11:09:37;;;;;;;14.50;13.40;;;22.00;47.40;;;;;;5012959;28;20223;-87
2023/06/04 11:12:05;;;;;;;13.93;13.02;;;22.30;44.70;;;;;;5012728;28;20197;-87
2023/06/04 11:14:31;;;;;;;14.50;13.40;;;22.10;42.40;;;;;;5014260;28;20197;-86
2023/06/04 11:16:56;;;;;;;14.73;13.27;;;22.10;43.20;;;;;;5012606;28;20184;-87
2023/06/04 11:19:22;;;;;;;13.85;12.85;;;22.10;45.30;;;;;;5012791;28;20545;-87
2023/06/04 11:21:49;;;;;;;13.70;12.60;;;22.30;45.20;;;;;;5012458;28;20690;-87
2023/06/04 11:24:16;;;;;;;14.15;13.05;;;22.50;45.20;;;;;;5014128;28;20231;-87
2023/06/04 11:26:41;;;;;;;13.98;12.75;;;21.90;44.40;;;;;;5012584;28;20177;-87
2023/06/04 11:29:11;;;;;;;12.80;11.93;;;21.20;44.80;;;;;;5012595;28;20550;-87
2023/06/04 11:31:44;;;;;;;13.10;12.27;;;21.40;47.30;;;;;;5012389;28;20197;-87
2023/06/04 11:34:13;;;;;;;13.30;12.18;;;21.70;46.40;;;;;;5012640;28;20201;-87
2023/06/04 11:36:38;;;;;;;13.52;12.43;;;22.20;44.30;;;;;;5013829;28;20162;-87
2023/06/04 11:39:06;;;;;;;13.80;12.63;;;22.10;45.00;;;;;;5012404;28;20184;-87
2023/06/04 11:41:33;;;;;;;14.10;12.85;;;22.10;44.80;;;;;;5012432;28;20174;-87
2023/06/04 11:44:03;;;;;;;13.20;12.32;;;22.10;44.90;;;;;;5013450;28;20185;-87
2023/06/04 11:46:29;;;;;;;13.90;12.80;;;22.30;41.10;;;;;;5012343;28;20668;-87
2023/06/04 11:48:54;;;;;;;14.55;13.18;;;22.50;42.70;;;;;;5012350;28;20284;-87
2023/06/04 11:51:21;;;;;;;13.65;12.75;;;22.70;42.80;;;;;;5012311;28;20173;-88
2023/06/04 11:53:46;;;;;;;14.07;13.18;;;22.90;41.80;;;;;;5012382;28;20208;-87
2023/06/04 11:56:12;;;;;;;14.35;13.35;;;22.80;43.00;;;;;;5013630;28;20582;-87
2023/06/04 11:58:40;;;;;;;14.75;13.75;;;22.70;43.70;;;;;;5013562;28;20261;-87
2023/06/04 12:01:06;;;;;;;14.93;14.02;;;22.30;41.90;;;;;;5012612;28;20181;-87
2023/06/04 12:03:38;;;;;;;15.60;14.05;;;22.50;41.90;;;;;;5012190;28;20216;-87
2023/06/04 12:06:17;;;;;;;14.90;13.80;;;22.50;43.50;;;;;;5012269;28;20227;-87
2023/06/04 12:08:47;;;;;;;14.90;13.90;;;22.30;42.20;;;;;;5013389;28;20533;-87
2023/06/04 12:11:33;;;;;;;15.55;14.50;;;22.70;41.70;;;;;;5013572;28;20256;-87
2023/06/04 12:14:04;;;;;;;15.40;14.30;;;22.70;41.60;;;;;;5013224;28;20213;-87
2023/06/04 12:16:30;;;;;;;16.10;14.75;;;22.90;42.10;;;;;;5015997;28;20538;-87
2023/06/04 12:19:10;;;;;;;15.70;14.60;;;22.90;41.90;;;;;;5015908;28;20180;-87
2023/06/04 12:21:36;;;;;;;14.65;13.55;;;23.10;40.60;;;;;;5016601;28;20197;-87
2023/06/04 12:24:10;;;;;;;14.73;13.73;;;23.30;41.20;;;;;;5015829;28;20174;-87
2023/06/04 12:26:40;;;;;;;14.15;13.25;;;23.20;42.20;;;;;;5017076;28;20178;-86
2023/06/04 12:29:14;;;;;;;14.30;13.10;;;23.20;40.30;;;;;;5016242;28;20654;-87